createdAt,value
2018-12-13T00:00:27.445Z,1014.72
2018-12-13T00:01:27.399Z,1014.68
2018-12-13T00:02:49.117Z,1014.64
2018-12-13T00:03:27.354Z,1014.64
2018-12-13T00:04:27.330Z,1014.62
2018-12-13T00:05:27.309Z,1014.67
2018-12-13T00:06:33.221Z,1014.62
2018-12-13T00:07:27.265Z,1014.58
2018-12-13T00:08:48.249Z,1014.59
2018-12-13T00:09:27.231Z,1014.63
2018-12-13T00:10:27.208Z,1014.56
2018-12-13T00:11:27.178Z,1014.55
2018-12-13T00:12:27.156Z,1014.56
2018-12-13T00:13:27.134Z,1014.56
2018-12-13T00:14:48.122Z,1014.55
2018-12-13T00:15:27.093Z,1014.56
2018-12-13T00:16:27.071Z,1014.56
2018-12-13T00:17:27.045Z,1014.50
2018-12-13T00:18:27.026Z,1014.51
2018-12-13T00:19:27.005Z,1014.51
2018-12-13T00:20:47.991Z,1014.50
2018-12-13T00:21:26.958Z,1014.47
2018-12-13T00:22:26.940Z,1014.49
2018-12-13T00:23:26.921Z,1014.52
2018-12-13T00:24:26.896Z,1014.53
2018-12-13T00:25:26.873Z,1014.56
2018-12-13T00:26:47.853Z,1014.57
2018-12-13T00:27:26.828Z,1014.59
2018-12-13T00:28:26.806Z,1014.56
2018-12-13T00:29:26.784Z,1014.56
2018-12-13T00:30:26.769Z,1014.57
2018-12-13T00:31:26.738Z,1014.56
2018-12-13T00:32:47.722Z,1014.61
2018-12-13T00:33:26.696Z,1014.54
2018-12-13T00:34:26.686Z,1014.55
2018-12-13T00:35:26.653Z,1014.55
2018-12-13T00:36:26.633Z,1014.49
2018-12-13T00:37:26.612Z,1014.53
2018-12-13T00:38:47.591Z,1014.55
2018-12-13T00:39:26.565Z,1014.54
2018-12-13T00:40:26.545Z,1014.52
2018-12-13T00:41:26.522Z,1014.49
2018-12-13T00:42:26.501Z,1014.48
2018-12-13T00:43:26.479Z,1014.49
2018-12-13T00:44:47.458Z,1014.48
2018-12-13T00:45:26.439Z,1014.48
2018-12-13T00:46:26.414Z,1014.44
2018-12-13T00:47:26.392Z,1014.47
2018-12-13T00:48:26.371Z,1014.48
2018-12-13T00:49:26.357Z,1014.48
2018-12-13T00:50:47.333Z,1014.51
2018-12-13T00:51:26.319Z,1014.46
2018-12-13T00:52:26.285Z,1014.48
2018-12-13T00:53:26.271Z,1014.44
2018-12-13T00:54:26.241Z,1014.42
2018-12-13T00:55:26.221Z,1014.44
2018-12-13T00:56:47.198Z,1014.42
2018-12-13T00:57:26.185Z,1014.46
2018-12-13T00:58:26.161Z,1014.39
2018-12-13T00:59:26.132Z,1014.44
2018-12-13T01:00:26.112Z,1014.45
2018-12-13T01:01:26.089Z,1014.39
2018-12-13T01:02:47.071Z,1014.43
2018-12-13T01:03:26.047Z,1014.39
2018-12-13T01:04:26.033Z,1014.40
2018-12-13T01:05:26.005Z,1014.38
2018-12-13T01:06:25.981Z,1014.42
2018-12-13T01:07:25.960Z,1014.41
2018-12-13T01:08:46.942Z,1014.39
2018-12-13T01:09:25.917Z,1014.39
2018-12-13T01:10:25.893Z,1014.33
2018-12-13T01:11:25.874Z,1014.30
2018-12-13T01:12:25.857Z,1014.34
2018-12-13T01:13:25.831Z,1014.33
2018-12-13T01:14:46.813Z,1014.32
2018-12-13T01:15:25.790Z,1014.35
2018-12-13T01:16:25.765Z,1014.31
2018-12-13T01:17:25.746Z,1014.30
2018-12-13T01:18:25.723Z,1014.34
2018-12-13T01:19:25.702Z,1014.34
2018-12-13T01:20:46.683Z,1014.32
2018-12-13T01:21:25.657Z,1014.31
2018-12-13T01:22:25.635Z,1014.33
2018-12-13T01:23:25.614Z,1014.30
2018-12-13T01:24:25.596Z,1014.30
2018-12-13T01:25:25.571Z,1014.26
2018-12-13T01:26:46.551Z,1014.27
2018-12-13T01:27:25.529Z,1014.27
2018-12-13T01:28:25.506Z,1014.19
2018-12-13T01:29:25.484Z,1014.21
2018-12-13T01:30:25.463Z,1014.21
2018-12-13T01:31:25.449Z,1014.21
2018-12-13T01:32:46.421Z,1014.18
2018-12-13T01:33:25.406Z,1014.21
2018-12-13T01:34:25.380Z,1014.17
2018-12-13T01:35:25.354Z,1014.18
2018-12-13T01:36:25.334Z,1014.16
2018-12-13T01:37:25.310Z,1014.17
2018-12-13T01:38:46.293Z,1014.13
2018-12-13T01:39:25.269Z,1014.14
2018-12-13T01:40:25.254Z,1014.16
2018-12-13T01:41:25.225Z,1014.15
2018-12-13T01:42:25.202Z,1014.16
2018-12-13T01:43:25.181Z,1014.20
2018-12-13T01:44:46.161Z,1014.21
2018-12-13T01:45:25.145Z,1014.19
2018-12-13T01:46:25.115Z,1014.14
2018-12-13T01:47:25.094Z,1014.13
2018-12-13T01:48:25.076Z,1014.18
2018-12-13T01:49:25.055Z,1014.17
2018-12-13T01:50:46.034Z,1014.15
2018-12-13T01:51:25.009Z,1014.15
2018-12-13T01:52:24.986Z,1014.14
2018-12-13T01:53:24.965Z,1014.15
2018-12-13T01:54:24.946Z,1014.12
2018-12-13T01:55:24.919Z,1014.09
2018-12-13T01:56:45.898Z,1014.13
2018-12-13T01:57:24.872Z,1014.07
2018-12-13T01:58:24.852Z,1014.07
2018-12-13T01:59:24.834Z,1014.07
2018-12-13T02:00:24.808Z,1014.08
2018-12-13T02:01:24.788Z,1014.03
2018-12-13T02:02:45.772Z,1014.11
2018-12-13T02:03:24.749Z,1014.05
2018-12-13T02:04:24.717Z,1014.07
2018-12-13T02:05:24.706Z,1014.05
2018-12-13T02:06:24.683Z,1014.11
2018-12-13T02:07:24.655Z,1014.13
2018-12-13T02:08:45.633Z,1014.12
2018-12-13T02:09:24.609Z,1014.13
2018-12-13T02:10:24.589Z,1014.11
2018-12-13T02:11:24.566Z,1014.08
2018-12-13T02:12:24.542Z,1014.07
2018-12-13T02:13:24.522Z,1014.03
2018-12-13T02:14:45.503Z,1014.09
2018-12-13T02:15:24.476Z,1014.09
2018-12-13T02:16:24.457Z,1014.01
2018-12-13T02:17:24.434Z,1014.08
2018-12-13T02:18:24.411Z,1014.04
2018-12-13T02:19:24.400Z,1014.06
2018-12-13T02:20:45.368Z,1014.02
2018-12-13T02:21:24.346Z,1014.05
2018-12-13T02:22:24.334Z,1014.04
2018-12-13T02:23:24.297Z,1014.00
2018-12-13T02:24:24.282Z,1014.01
2018-12-13T02:25:24.255Z,1014.03
2018-12-13T02:26:45.236Z,1014.01
2018-12-13T02:27:24.213Z,1013.96
2018-12-13T02:28:24.188Z,1013.94
2018-12-13T02:29:24.162Z,1013.94
2018-12-13T02:30:24.145Z,1013.94
2018-12-13T02:31:24.122Z,1013.93
2018-12-13T02:32:45.100Z,1013.92
2018-12-13T02:33:24.082Z,1013.92
2018-12-13T02:34:24.069Z,1013.94
2018-12-13T02:35:24.029Z,1013.95
2018-12-13T02:36:24.007Z,1013.90
2018-12-13T02:37:23.991Z,1013.96
2018-12-13T02:38:44.961Z,1013.92
2018-12-13T02:39:23.938Z,1013.92
2018-12-13T02:40:23.916Z,1013.98
2018-12-13T02:41:23.894Z,1013.94
2018-12-13T02:42:23.869Z,1013.90
2018-12-13T02:43:23.860Z,1013.92
2018-12-13T02:44:44.828Z,1013.88
2018-12-13T02:45:23.802Z,1013.86
2018-12-13T02:46:23.784Z,1013.86
2018-12-13T02:47:23.760Z,1013.85
2018-12-13T02:48:23.734Z,1013.84
2018-12-13T02:49:23.713Z,1013.83
2018-12-13T02:50:44.703Z,1013.81
2018-12-13T02:51:23.668Z,1013.84
2018-12-13T02:52:23.648Z,1013.81
2018-12-13T02:53:23.625Z,1013.82
2018-12-13T02:54:23.598Z,1013.82
2018-12-13T02:55:23.580Z,1013.84
2018-12-13T02:56:44.555Z,1013.78
2018-12-13T02:57:23.535Z,1013.80
2018-12-13T02:58:23.509Z,1013.79
2018-12-13T02:59:23.486Z,1013.81
2018-12-13T03:00:23.467Z,1013.80
2018-12-13T03:01:23.442Z,1013.80
2018-12-13T03:02:44.427Z,1013.79
2018-12-13T03:03:23.396Z,1013.78
2018-12-13T03:04:23.373Z,1013.77
2018-12-13T03:05:23.354Z,1013.76
2018-12-13T03:06:23.328Z,1013.76
2018-12-13T03:07:23.303Z,1013.79
2018-12-13T03:08:44.288Z,1013.76
2018-12-13T03:09:23.259Z,1013.73
2018-12-13T03:10:23.242Z,1013.71
2018-12-13T03:11:23.212Z,1013.74
2018-12-13T03:12:23.192Z,1013.74
2018-12-13T03:13:23.167Z,1013.72
2018-12-13T03:14:44.153Z,1013.66
2018-12-13T03:15:23.121Z,1013.75
2018-12-13T03:16:23.098Z,1013.75
2018-12-13T03:17:23.080Z,1013.73
2018-12-13T03:18:23.055Z,1013.75
2018-12-13T03:19:23.031Z,1013.72
2018-12-13T03:20:44.017Z,1013.75
2018-12-13T03:21:22.985Z,1013.74
2018-12-13T03:22:22.963Z,1013.77
2018-12-13T03:23:22.943Z,1013.77
2018-12-13T03:24:22.918Z,1013.76
2018-12-13T03:25:22.892Z,1013.73
2018-12-13T03:26:43.871Z,1013.69
2018-12-13T03:27:22.845Z,1013.71
2018-12-13T03:28:22.824Z,1013.71
2018-12-13T03:29:22.804Z,1013.74
2018-12-13T03:30:22.782Z,1013.73
2018-12-13T03:31:22.758Z,1013.67
2018-12-13T03:32:43.738Z,1013.70
2018-12-13T03:33:22.710Z,1013.68
2018-12-13T03:34:22.690Z,1013.70
2018-12-13T03:35:22.665Z,1013.69
2018-12-13T03:36:22.643Z,1013.69
2018-12-13T03:37:22.622Z,1013.64
2018-12-13T03:38:43.602Z,1013.56
2018-12-13T03:39:22.576Z,1013.62
2018-12-13T03:40:22.557Z,1013.61
2018-12-13T03:41:22.535Z,1013.59
2018-12-13T03:42:22.505Z,1013.57
2018-12-13T03:43:22.481Z,1013.57
2018-12-13T03:44:43.473Z,1013.56
2018-12-13T03:45:22.435Z,1013.50
2018-12-13T03:46:22.420Z,1013.47
2018-12-13T03:47:22.391Z,1013.53
2018-12-13T03:48:22.370Z,1013.52
2018-12-13T03:49:22.348Z,1013.53
2018-12-13T03:50:43.326Z,1013.53
2018-12-13T03:51:22.303Z,1013.52
2018-12-13T03:52:22.279Z,1013.52
2018-12-13T03:53:22.256Z,1013.51
2018-12-13T03:54:22.230Z,1013.49
2018-12-13T03:55:22.219Z,1013.54
2018-12-13T03:56:43.186Z,1013.52
2018-12-13T03:57:22.159Z,1013.46
2018-12-13T03:58:22.139Z,1013.53
2018-12-13T03:59:22.117Z,1013.52
2018-12-13T04:00:22.095Z,1013.50
2018-12-13T04:01:22.072Z,1013.49
2018-12-13T04:02:43.051Z,1013.44
2018-12-13T04:03:22.025Z,1013.43
2018-12-13T04:04:22.002Z,1013.43
2018-12-13T04:05:21.979Z,1013.44
2018-12-13T04:06:21.958Z,1013.46
2018-12-13T04:07:27.708Z,1013.39
2018-12-13T04:08:42.913Z,1013.40
2018-12-13T04:09:21.891Z,1013.42
2018-12-13T04:10:21.865Z,1013.42
2018-12-13T04:11:21.842Z,1013.42
2018-12-13T04:12:21.820Z,1013.44
2018-12-13T04:13:21.796Z,1013.41
2018-12-13T04:14:42.787Z,1013.39
2018-12-13T04:15:21.751Z,1013.40
2018-12-13T04:16:21.727Z,1013.39
2018-12-13T04:17:21.704Z,1013.35
2018-12-13T04:18:21.683Z,1013.33
2018-12-13T04:19:21.659Z,1013.34
2018-12-13T04:20:42.642Z,1013.37
2018-12-13T04:21:21.622Z,1013.36
2018-12-13T04:22:21.589Z,1013.37
2018-12-13T04:23:21.574Z,1013.37
2018-12-13T04:24:21.540Z,1013.33
2018-12-13T04:25:21.518Z,1013.36
2018-12-13T04:26:42.503Z,1013.35
2018-12-13T04:27:21.477Z,1013.34
2018-12-13T04:28:21.447Z,1013.34
2018-12-13T04:29:21.436Z,1013.35
2018-12-13T04:30:21.409Z,1013.31
2018-12-13T04:31:21.383Z,1013.31
2018-12-13T04:32:42.361Z,1013.35
2018-12-13T04:33:21.338Z,1013.30
2018-12-13T04:34:21.319Z,1013.27
2018-12-13T04:35:21.288Z,1013.30
2018-12-13T04:36:21.268Z,1013.27
2018-12-13T04:37:21.243Z,1013.30
2018-12-13T04:38:42.225Z,1013.26
2018-12-13T04:39:21.201Z,1013.28
2018-12-13T04:40:21.173Z,1013.28
2018-12-13T04:41:21.149Z,1013.30
2018-12-13T04:42:21.126Z,1013.31
2018-12-13T04:43:21.107Z,1013.26
2018-12-13T04:44:42.083Z,1013.28
2018-12-13T04:45:21.061Z,1013.26
2018-12-13T04:46:21.033Z,1013.23
2018-12-13T04:47:21.024Z,1013.27
2018-12-13T04:48:20.990Z,1013.26
2018-12-13T04:49:20.963Z,1013.24
2018-12-13T04:50:41.953Z,1013.22
2018-12-13T04:51:20.919Z,1013.20
2018-12-13T04:52:20.897Z,1013.18
2018-12-13T04:53:20.871Z,1013.20
2018-12-13T04:54:20.847Z,1013.17
2018-12-13T04:55:20.826Z,1013.16
2018-12-13T04:56:41.802Z,1013.20
2018-12-13T04:57:20.775Z,1013.15
2018-12-13T04:58:20.759Z,1013.18
2018-12-13T04:59:20.732Z,1013.15
2018-12-13T05:00:20.709Z,1013.20
2018-12-13T05:01:20.693Z,1013.15
2018-12-13T05:02:41.661Z,1013.16
2018-12-13T05:03:20.642Z,1013.14
2018-12-13T05:04:20.614Z,1013.19
2018-12-13T05:05:20.593Z,1013.16
2018-12-13T05:06:20.567Z,1013.18
2018-12-13T05:07:20.545Z,1013.16
2018-12-13T05:08:41.520Z,1013.20
2018-12-13T05:09:20.500Z,1013.16
2018-12-13T05:10:20.483Z,1013.14
2018-12-13T05:11:20.453Z,1013.16
2018-12-13T05:12:20.435Z,1013.14
2018-12-13T05:13:20.404Z,1013.13
2018-12-13T05:14:41.382Z,1013.10
2018-12-13T05:15:20.359Z,1013.11
2018-12-13T05:16:20.337Z,1013.14
2018-12-13T05:17:20.314Z,1013.08
2018-12-13T05:18:20.292Z,1013.11
2018-12-13T05:19:20.264Z,1013.06
2018-12-13T05:20:41.245Z,1013.05
2018-12-13T05:21:20.219Z,1013.04
2018-12-13T05:22:20.542Z,1013.01
2018-12-13T05:23:20.170Z,1013.05
2018-12-13T05:24:20.147Z,1013.01
2018-12-13T05:25:20.130Z,1013.01
2018-12-13T05:26:41.102Z,1013.00
2018-12-13T05:27:20.078Z,1013.02
2018-12-13T05:28:20.053Z,1012.98
2018-12-13T05:29:20.033Z,1012.95
2018-12-13T05:30:20.007Z,1012.97
2018-12-13T05:31:19.987Z,1012.97
2018-12-13T05:32:40.962Z,1012.98
2018-12-13T05:33:19.947Z,1013.02
2018-12-13T05:34:19.914Z,1013.01
2018-12-13T05:35:19.890Z,1012.97
2018-12-13T05:36:19.873Z,1012.93
2018-12-13T05:37:19.846Z,1012.93
2018-12-13T05:38:40.822Z,1012.95
2018-12-13T05:39:19.808Z,1012.89
2018-12-13T05:40:19.772Z,1012.87
2018-12-13T05:41:19.750Z,1012.94
2018-12-13T05:42:19.726Z,1012.92
2018-12-13T05:43:19.706Z,1012.93
2018-12-13T05:44:40.681Z,1012.92
2018-12-13T05:45:19.663Z,1012.93
2018-12-13T05:46:19.635Z,1012.91
2018-12-13T05:47:19.620Z,1012.92
2018-12-13T05:48:19.588Z,1012.91
2018-12-13T05:49:19.566Z,1012.91
2018-12-13T05:50:40.546Z,1012.90
2018-12-13T05:51:19.519Z,1012.88
2018-12-13T05:52:19.496Z,1012.86
2018-12-13T05:53:19.467Z,1012.87
2018-12-13T05:54:19.441Z,1012.86
2018-12-13T05:55:19.421Z,1012.85
2018-12-13T05:56:40.397Z,1012.88
2018-12-13T05:57:19.374Z,1012.89
2018-12-13T05:58:19.351Z,1012.90
2018-12-13T05:59:19.329Z,1012.89
2018-12-13T06:00:19.341Z,1012.86
2018-12-13T06:01:19.282Z,1012.87
2018-12-13T06:02:40.257Z,1012.90
2018-12-13T06:03:19.237Z,1012.89
2018-12-13T06:04:19.210Z,1012.92
2018-12-13T06:05:19.186Z,1012.91
2018-12-13T06:06:19.169Z,1012.93
2018-12-13T06:07:19.144Z,1012.93
2018-12-13T06:08:40.119Z,1012.95
2018-12-13T06:09:19.102Z,1012.96
2018-12-13T06:10:19.074Z,1012.98
2018-12-13T06:11:19.048Z,1013.00
2018-12-13T06:12:19.021Z,1012.98
2018-12-13T06:13:18.998Z,1012.99
2018-12-13T06:14:39.977Z,1012.98
2018-12-13T06:15:18.956Z,1013.01
2018-12-13T06:16:18.954Z,1013.05
2018-12-13T06:17:18.904Z,1013.01
2018-12-13T06:18:18.891Z,1013.07
2018-12-13T06:19:18.862Z,1013.05
2018-12-13T06:20:39.839Z,1013.06
2018-12-13T06:21:18.817Z,1013.02
2018-12-13T06:22:18.791Z,1013.04
2018-12-13T06:23:18.763Z,1013.06
2018-12-13T06:24:18.744Z,1013.09
2018-12-13T06:25:18.739Z,1013.08
2018-12-13T06:26:39.695Z,1013.09
2018-12-13T06:27:18.670Z,1013.07
2018-12-13T06:28:18.654Z,1013.05
2018-12-13T06:29:18.627Z,1013.07
2018-12-13T06:30:18.601Z,1013.08
2018-12-13T06:31:18.576Z,1013.09
2018-12-13T06:32:39.550Z,1013.11
2018-12-13T06:33:24.695Z,1013.12
2018-12-13T06:34:18.514Z,1013.13
2018-12-13T06:35:18.482Z,1013.13
2018-12-13T06:36:18.455Z,1013.16
2018-12-13T06:37:18.436Z,1013.17
2018-12-13T06:38:39.414Z,1013.18
2018-12-13T06:39:18.389Z,1013.17
2018-12-13T06:40:18.380Z,1013.16
2018-12-13T06:41:18.339Z,1013.16
2018-12-13T06:42:18.325Z,1013.16
2018-12-13T06:43:18.297Z,1013.18
2018-12-13T06:44:39.325Z,1013.19
2018-12-13T06:45:18.243Z,1013.21
2018-12-13T06:46:18.221Z,1013.26
2018-12-13T06:47:18.197Z,1013.29
2018-12-13T06:48:18.173Z,1013.25
2018-12-13T06:49:18.155Z,1013.27
2018-12-13T06:50:39.130Z,1013.28
2018-12-13T06:51:18.102Z,1013.24
2018-12-13T06:52:18.083Z,1013.27
2018-12-13T06:53:18.056Z,1013.27
2018-12-13T06:54:18.031Z,1013.24
2018-12-13T06:55:18.019Z,1013.23
2018-12-13T06:56:38.991Z,1013.22
2018-12-13T06:57:17.964Z,1013.17
2018-12-13T06:58:17.936Z,1013.22
2018-12-13T06:59:17.914Z,1013.22
2018-12-13T07:00:17.893Z,1013.19
2018-12-13T07:01:17.865Z,1013.19
2018-12-13T07:02:38.849Z,1013.21
2018-12-13T07:03:17.900Z,1013.17
2018-12-13T07:04:17.799Z,1013.23
2018-12-13T07:05:17.772Z,1013.22
2018-12-13T07:06:17.749Z,1013.24
2018-12-13T07:07:17.727Z,1013.22
2018-12-13T07:08:38.699Z,1013.26
2018-12-13T07:09:17.676Z,1013.22
2018-12-13T07:10:17.655Z,1013.27
2018-12-13T07:11:17.629Z,1013.24
2018-12-13T07:12:17.604Z,1013.21
2018-12-13T07:13:17.582Z,1013.24
2018-12-13T07:14:38.563Z,1013.24
2018-12-13T07:15:17.533Z,1013.26
2018-12-13T07:16:17.513Z,1013.28
2018-12-13T07:17:17.489Z,1013.27
2018-12-13T07:18:17.463Z,1013.25
2018-12-13T07:19:17.437Z,1013.31
2018-12-13T07:20:38.418Z,1013.28
2018-12-13T07:21:17.405Z,1013.30
2018-12-13T07:22:17.376Z,1013.30
2018-12-13T07:23:17.348Z,1013.29
2018-12-13T07:24:17.323Z,1013.31
2018-12-13T07:25:17.303Z,1013.29
2018-12-13T07:26:38.281Z,1013.27
2018-12-13T07:27:17.259Z,1013.31
2018-12-13T07:28:17.229Z,1013.38
2018-12-13T07:29:17.203Z,1013.37
2018-12-13T07:30:17.186Z,1013.36
2018-12-13T07:31:17.160Z,1013.39
2018-12-13T07:32:38.131Z,1013.38
2018-12-13T07:33:17.111Z,1013.38
2018-12-13T07:34:17.089Z,1013.33
2018-12-13T07:35:17.065Z,1013.36
2018-12-13T07:36:17.038Z,1013.36
2018-12-13T07:37:17.011Z,1013.37
2018-12-13T07:38:38.002Z,1013.34
2018-12-13T07:39:16.989Z,1013.33
2018-12-13T07:40:16.942Z,1013.38
2018-12-13T07:41:16.919Z,1013.34
2018-12-13T07:42:16.893Z,1013.38
2018-12-13T07:43:16.871Z,1013.36
2018-12-13T07:44:37.851Z,1013.37
2018-12-13T07:45:16.827Z,1013.38
2018-12-13T07:46:16.800Z,1013.34
2018-12-13T07:47:16.778Z,1013.35
2018-12-13T07:48:16.753Z,1013.34
2018-12-13T07:49:16.734Z,1013.36
2018-12-13T07:50:37.710Z,1013.35
2018-12-13T07:51:16.682Z,1013.37
2018-12-13T07:52:16.665Z,1013.36
2018-12-13T07:53:16.637Z,1013.39
2018-12-13T07:54:16.611Z,1013.39
2018-12-13T07:55:16.593Z,1013.38
2018-12-13T07:56:37.569Z,1013.37
2018-12-13T07:57:16.541Z,1013.36
2018-12-13T07:58:16.525Z,1013.37
2018-12-13T07:59:16.494Z,1013.36
2018-12-13T08:00:16.471Z,1013.37
2018-12-13T08:01:16.452Z,1013.39
2018-12-13T08:02:37.426Z,1013.36
2018-12-13T08:03:16.408Z,1013.41
2018-12-13T08:04:16.384Z,1013.41
2018-12-13T08:05:16.355Z,1013.39
2018-12-13T08:06:16.330Z,1013.38
2018-12-13T08:07:16.307Z,1013.42
2018-12-13T08:08:37.287Z,1013.35
2018-12-13T08:09:16.259Z,1013.37
2018-12-13T08:10:16.238Z,1013.38
2018-12-13T08:11:16.217Z,1013.34
2018-12-13T08:12:16.189Z,1013.38
2018-12-13T08:13:16.165Z,1013.31
2018-12-13T08:14:37.143Z,1013.38
2018-12-13T08:15:16.122Z,1013.35
2018-12-13T08:16:16.098Z,1013.34
2018-12-13T08:17:16.078Z,1013.36
2018-12-13T08:18:16.052Z,1013.34
2018-12-13T08:19:16.041Z,1013.32
2018-12-13T08:20:37.007Z,1013.35
2018-12-13T08:21:15.986Z,1013.35
2018-12-13T08:22:15.977Z,1013.34
2018-12-13T08:23:15.940Z,1013.34
2018-12-13T08:24:15.913Z,1013.34
2018-12-13T08:25:15.891Z,1013.28
2018-12-13T08:26:36.867Z,1013.34
2018-12-13T08:27:15.845Z,1013.24
2018-12-13T08:28:15.843Z,1013.29
2018-12-13T08:29:15.810Z,1013.27
2018-12-13T08:30:15.781Z,1013.26
2018-12-13T08:31:15.755Z,1013.25
2018-12-13T08:32:36.741Z,1013.27
2018-12-13T08:33:15.709Z,1013.24
2018-12-13T08:34:15.682Z,1013.21
2018-12-13T08:35:15.660Z,1013.21
2018-12-13T08:36:15.644Z,1013.20
2018-12-13T08:37:15.611Z,1013.21
2018-12-13T08:38:36.635Z,1013.23
2018-12-13T08:39:15.581Z,1013.23
2018-12-13T08:40:15.554Z,1013.26
2018-12-13T08:41:15.524Z,1013.29
2018-12-13T08:42:15.500Z,1013.27
2018-12-13T08:43:15.498Z,1013.31
2018-12-13T08:44:36.473Z,1013.28
2018-12-13T08:45:15.439Z,1013.30
2018-12-13T08:46:15.423Z,1013.30
2018-12-13T08:47:15.393Z,1013.30
2018-12-13T08:48:15.366Z,1013.28
2018-12-13T08:49:15.343Z,1013.32
2018-12-13T08:50:36.323Z,1013.28
2018-12-13T08:51:15.298Z,1013.26
2018-12-13T08:52:15.276Z,1013.26
2018-12-13T08:53:15.257Z,1013.23
2018-12-13T08:54:15.230Z,1013.30
2018-12-13T08:55:15.211Z,1013.24
2018-12-13T08:56:36.203Z,1013.26
2018-12-13T08:57:15.201Z,1013.24
2018-12-13T08:58:15.142Z,1013.25
2018-12-13T08:59:15.118Z,1013.22
2018-12-13T09:00:15.094Z,1013.22
2018-12-13T09:01:15.072Z,1013.25
2018-12-13T09:02:36.051Z,1013.21
2018-12-13T09:03:15.030Z,1013.21
2018-12-13T09:04:15.011Z,1013.24
2018-12-13T09:05:14.996Z,1013.24
2018-12-13T09:06:14.981Z,1013.20
2018-12-13T09:07:14.937Z,1013.23
2018-12-13T09:08:35.913Z,1013.26
2018-12-13T09:09:14.892Z,1013.24
2018-12-13T09:10:14.872Z,1013.26
2018-12-13T09:11:14.850Z,1013.29
2018-12-13T09:12:14.826Z,1013.33
2018-12-13T09:13:14.807Z,1013.28
2018-12-13T09:14:35.785Z,1013.31
2018-12-13T09:15:14.758Z,1013.30
2018-12-13T09:16:14.776Z,1013.30
2018-12-13T09:17:14.713Z,1013.31
2018-12-13T09:18:14.706Z,1013.34
2018-12-13T09:19:14.670Z,1013.34
2018-12-13T09:20:35.644Z,1013.35
2018-12-13T09:21:14.625Z,1013.34
2018-12-13T09:22:14.600Z,1013.36
2018-12-13T09:23:14.581Z,1013.32
2018-12-13T09:24:14.557Z,1013.33
2018-12-13T09:25:14.553Z,1013.35
2018-12-13T09:26:35.513Z,1013.34
2018-12-13T09:27:14.489Z,1013.37
2018-12-13T09:28:14.467Z,1013.40
2018-12-13T09:29:14.447Z,1013.35
2018-12-13T09:30:14.422Z,1013.38
2018-12-13T09:31:14.401Z,1013.39
2018-12-13T09:32:35.385Z,1013.38
2018-12-13T09:33:14.376Z,1013.38
2018-12-13T09:34:14.354Z,1013.43
2018-12-13T09:35:14.324Z,1013.43
2018-12-13T09:36:14.302Z,1013.37
2018-12-13T09:37:14.284Z,1013.35
2018-12-13T09:38:39.798Z,1013.39
2018-12-13T09:39:14.226Z,1013.35
2018-12-13T09:40:14.220Z,1013.34
2018-12-13T09:41:14.183Z,1013.37
2018-12-13T09:42:14.168Z,1013.33
2018-12-13T09:43:14.148Z,1013.34
2018-12-13T09:44:35.184Z,1013.35
2018-12-13T09:45:14.098Z,1013.34
2018-12-13T09:46:14.077Z,1013.36
2018-12-13T09:47:14.061Z,1013.38
2018-12-13T09:48:14.042Z,1013.43
2018-12-13T09:49:14.031Z,1013.38
2018-12-13T09:50:34.996Z,1013.36
2018-12-13T09:51:13.983Z,1013.44
2018-12-13T09:52:13.943Z,1013.43
2018-12-13T09:53:13.919Z,1013.46
2018-12-13T09:54:13.903Z,1013.41
2018-12-13T09:55:13.882Z,1013.41
2018-12-13T09:56:34.872Z,1013.41
2018-12-13T09:57:13.840Z,1013.43
2018-12-13T09:58:13.823Z,1013.47
2018-12-13T09:59:13.804Z,1013.44
2018-12-13T10:00:13.774Z,1013.41
2018-12-13T10:01:13.765Z,1013.41
2018-12-13T10:02:34.727Z,1013.39
2018-12-13T10:03:13.704Z,1013.36
2018-12-13T10:04:13.682Z,1013.38
2018-12-13T10:05:13.664Z,1013.35
2018-12-13T10:06:13.642Z,1013.27
2018-12-13T10:07:13.621Z,1013.29
2018-12-13T10:08:34.597Z,1013.28
2018-12-13T10:09:13.578Z,1013.27
2018-12-13T10:10:13.565Z,1013.26
2018-12-13T10:11:13.534Z,1013.31
2018-12-13T10:12:13.510Z,1013.33
2018-12-13T10:13:13.495Z,1013.29
2018-12-13T10:14:34.472Z,1013.28
2018-12-13T10:15:13.452Z,1013.29
2018-12-13T10:16:13.438Z,1013.26
2018-12-13T10:17:14.884Z,1013.30
2018-12-13T10:18:13.386Z,1013.25
2018-12-13T10:19:13.371Z,1013.30
2018-12-13T10:20:34.361Z,1013.25
2018-12-13T10:21:13.345Z,1013.25
2018-12-13T10:22:13.299Z,1013.23
2018-12-13T10:23:13.279Z,1013.23
2018-12-13T10:24:13.256Z,1013.22
2018-12-13T10:25:13.243Z,1013.23
2018-12-13T10:26:34.220Z,1013.19
2018-12-13T10:27:13.192Z,1013.24
2018-12-13T10:28:13.188Z,1013.24
2018-12-13T10:29:13.164Z,1013.27
2018-12-13T10:30:13.130Z,1013.28
2018-12-13T10:31:13.115Z,1013.28
2018-12-13T10:32:34.084Z,1013.26
2018-12-13T10:33:13.093Z,1013.26
2018-12-13T10:34:13.047Z,1013.30
2018-12-13T10:35:13.023Z,1013.30
2018-12-13T10:36:13.031Z,1013.21
2018-12-13T10:37:12.982Z,1013.25
2018-12-13T10:38:33.966Z,1013.23
2018-12-13T10:39:12.941Z,1013.18
2018-12-13T10:40:12.917Z,1013.19
2018-12-13T10:41:12.895Z,1013.17
2018-12-13T10:42:12.874Z,1013.17
2018-12-13T10:43:12.856Z,1013.15
2018-12-13T10:44:33.833Z,1013.14
2018-12-13T10:45:12.813Z,1013.15
2018-12-13T10:46:12.793Z,1013.17
2018-12-13T10:47:12.782Z,1013.17
2018-12-13T10:48:12.755Z,1013.14
2018-12-13T10:49:12.733Z,1013.13
2018-12-13T10:50:33.747Z,1013.14
2018-12-13T10:51:12.697Z,1013.10
2018-12-13T10:52:12.673Z,1013.10
2018-12-13T10:53:12.649Z,1013.13
2018-12-13T10:54:12.628Z,1013.08
2018-12-13T10:55:12.608Z,1013.06
2018-12-13T10:56:33.583Z,1013.05
2018-12-13T10:57:12.562Z,1012.98
2018-12-13T10:58:12.552Z,1013.04
2018-12-13T10:59:12.534Z,1013.01
2018-12-13T11:00:12.505Z,1013.05
2018-12-13T11:01:12.483Z,1013.04
2018-12-13T11:02:33.461Z,1013.06
2018-12-13T11:03:12.441Z,1013.02
2018-12-13T11:04:12.519Z,1013.02
2018-12-13T11:05:12.397Z,1012.98
2018-12-13T11:06:12.379Z,1012.99
2018-12-13T11:07:12.363Z,1013.04
2018-12-13T11:08:33.339Z,1013.00
2018-12-13T11:09:12.317Z,1013.02
2018-12-13T11:10:12.295Z,1012.99
2018-12-13T11:11:12.273Z,1012.97
2018-12-13T11:12:12.253Z,1012.91
2018-12-13T11:13:12.237Z,1012.90
2018-12-13T11:14:33.226Z,1012.90
2018-12-13T11:15:12.202Z,1012.92
2018-12-13T11:16:12.176Z,1012.86
2018-12-13T11:17:12.153Z,1012.87
2018-12-13T11:18:12.135Z,1012.76
2018-12-13T11:19:12.111Z,1012.80
2018-12-13T11:20:33.128Z,1012.86
2018-12-13T11:21:17.477Z,1012.81
2018-12-13T11:22:12.106Z,1012.80
2018-12-13T11:23:12.032Z,1012.82
2018-12-13T11:24:12.024Z,1012.83
2018-12-13T11:25:11.994Z,1012.86
2018-12-13T11:26:32.970Z,1012.87
2018-12-13T11:27:11.948Z,1012.88
2018-12-13T11:28:11.929Z,1012.81
2018-12-13T11:29:11.910Z,1012.77
2018-12-13T11:30:11.889Z,1012.82
2018-12-13T11:31:11.872Z,1012.81
2018-12-13T11:32:32.850Z,1012.82
2018-12-13T11:33:11.826Z,1012.74
2018-12-13T11:34:11.806Z,1012.77
2018-12-13T11:35:12.918Z,1012.75
2018-12-13T11:36:11.761Z,1012.78
2018-12-13T11:37:11.743Z,1012.74
2018-12-13T11:38:32.726Z,1012.74
2018-12-13T11:39:11.703Z,1012.74
2018-12-13T11:40:11.778Z,1012.77
2018-12-13T11:41:11.664Z,1012.75
2018-12-13T11:42:11.651Z,1012.74
2018-12-13T11:43:11.625Z,1012.73
2018-12-13T11:44:32.616Z,1012.73
2018-12-13T11:45:11.659Z,1012.70
2018-12-13T11:46:11.568Z,1012.68
2018-12-13T11:47:11.538Z,1012.72
2018-12-13T11:48:11.518Z,1012.68
2018-12-13T11:49:12.281Z,1012.65
2018-12-13T11:50:32.484Z,1012.69
2018-12-13T11:51:11.458Z,1012.61
2018-12-13T11:52:11.438Z,1012.63
2018-12-13T11:53:11.417Z,1012.62
2018-12-13T11:54:11.397Z,1012.59
2018-12-13T11:55:11.383Z,1012.58
2018-12-13T11:56:32.356Z,1012.50
2018-12-13T11:57:11.338Z,1012.50
2018-12-13T11:58:11.315Z,1012.49
2018-12-13T11:59:11.298Z,1012.50
2018-12-13T12:00:11.272Z,1012.42
2018-12-13T12:01:11.255Z,1012.40
2018-12-13T12:02:32.237Z,1012.38
2018-12-13T12:03:11.214Z,1012.36
2018-12-13T12:04:11.200Z,1012.33
2018-12-13T12:05:11.173Z,1012.35